sensor_id;sensor_type;location;lat;lon;timestamp;temperature;humidity
52073;DHT22;38074;51.232;6.826;2023-08-06T00:00:00;24.80;55.20
52073;DHT22;38074;51.232;6.826;2023-08-06T00:07:18;24.80;55.10
52073;DHT22;38074;51.232;6.826;2023-08-06T00:14:37;24.80;55.10
52073;DHT22;38074;51.232;6.826;2023-08-06T00:21:54;24.80;55.00
52073;DHT22;38074;51.232;6.826;2023-08-06T00:29:12;24.80;54.90
52073;DHT22;38074;51.232;6.826;2023-08-06T00:36:28;24.80;54.90
52073;DHT22;38074;51.232;6.826;2023-08-06T00:43:43;24.80;54.90
52073;DHT22;38074;51.232;6.826;2023-08-06T00:50:59;24.80;54.80
52073;DHT22;38074;51.232;6.826;2023-08-06T00:58:15;24.80;54.70
52073;DHT22;38074;51.232;6.826;2023-08-06T01:05:31;24.70;54.60
52073;DHT22;38074;51.232;6.826;2023-08-06T01:20:05;24.80;54.60
52073;DHT22;38074;51.232;6.826;2023-08-06T01:27:28;24.70;54.50
52073;DHT22;38074;51.232;6.826;2023-08-06T01:34:45;24.70;54.40
52073;DHT22;38074;51.232;6.826;2023-08-06T01:42:02;24.70;54.40
52073;DHT22;38074;51.232;6.826;2023-08-06T01:49:18;24.70;54.40
52073;DHT22;38074;51.232;6.826;2023-08-06T01:56:33;24.70;54.40
52073;DHT22;38074;51.232;6.826;2023-08-06T02:03:49;24.70;54.40
52073;DHT22;38074;51.232;6.826;2023-08-06T02:11:04;24.70;54.40
52073;DHT22;38074;51.232;6.826;2023-08-06T02:18:20;24.70;54.30
52073;DHT22;38074;51.232;6.826;2023-08-06T02:25:35;24.80;54.30
52073;DHT22;38074;51.232;6.826;2023-08-06T02:32:51;24.70;54.30
52073;DHT22;38074;51.232;6.826;2023-08-06T02:40:06;24.70;54.20
52073;DHT22;38074;51.232;6.826;2023-08-06T02:47:22;24.70;54.30
52073;DHT22;38074;51.232;6.826;2023-08-06T02:54:37;24.70;54.30
52073;DHT22;38074;51.232;6.826;2023-08-06T03:01:53;24.70;54.30
52073;DHT22;38074;51.232;6.826;2023-08-06T03:09:09;24.70;54.30
52073;DHT22;38074;51.232;6.826;2023-08-06T03:16:24;24.70;54.30
52073;DHT22;38074;51.232;6.826;2023-08-06T03:23:40;24.70;54.30
52073;DHT22;38074;51.232;6.826;2023-08-06T03:31:13;24.70;54.30
52073;DHT22;38074;51.232;6.826;2023-08-06T03:38:28;24.70;54.30
52073;DHT22;38074;51.232;6.826;2023-08-06T03:45:44;24.70;54.30
52073;DHT22;38074;51.232;6.826;2023-08-06T03:52:59;24.70;54.30
52073;DHT22;38074;51.232;6.826;2023-08-06T04:00:15;24.70;54.30
52073;DHT22;38074;51.232;6.826;2023-08-06T04:07:30;24.70;54.30
52073;DHT22;38074;51.232;6.826;2023-08-06T04:14:46;24.70;54.30
52073;DHT22;38074;51.232;6.826;2023-08-06T04:22:01;24.70;54.30
52073;DHT22;38074;51.232;6.826;2023-08-06T04:29:17;24.70;54.30
52073;DHT22;38074;51.232;6.826;2023-08-06T04:36:32;24.70;54.30
52073;DHT22;38074;51.232;6.826;2023-08-06T04:43:48;24.70;54.30
52073;DHT22;38074;51.232;6.826;2023-08-06T04:51:03;24.70;54.30
52073;DHT22;38074;51.232;6.826;2023-08-06T04:58:18;24.70;54.30
52073;DHT22;38074;51.232;6.826;2023-08-06T05:05:34;24.70;54.20
52073;DHT22;38074;51.232;6.826;2023-08-06T05:12:50;24.70;54.20
52073;DHT22;38074;51.232;6.826;2023-08-06T05:20:05;24.70;54.20
52073;DHT22;38074;51.232;6.826;2023-08-06T05:27:21;24.70;54.20
52073;DHT22;38074;51.232;6.826;2023-08-06T05:34:36;24.70;54.20
52073;DHT22;38074;51.232;6.826;2023-08-06T05:41:52;24.70;54.20
52073;DHT22;38074;51.232;6.826;2023-08-06T05:49:07;24.70;54.20
52073;DHT22;38074;51.232;6.826;2023-08-06T05:56:23;24.70;54.30
52073;DHT22;38074;51.232;6.826;2023-08-06T06:03:42;24.70;54.40
52073;DHT22;38074;51.232;6.826;2023-08-06T06:11:07;24.70;54.40
52073;DHT22;38074;51.232;6.826;2023-08-06T06:18:24;24.70;54.40
52073;DHT22;38074;51.232;6.826;2023-08-06T06:25:49;24.70;54.50
52073;DHT22;38074;51.232;6.826;2023-08-06T06:33:04;24.70;54.60
52073;DHT22;38074;51.232;6.826;2023-08-06T06:40:20;24.70;54.60
52073;DHT22;38074;51.232;6.826;2023-08-06T06:47:35;24.70;54.70
52073;DHT22;38074;51.232;6.826;2023-08-06T06:54:51;24.70;54.80
52073;DHT22;38074;51.232;6.826;2023-08-06T07:02:06;24.70;54.70
52073;DHT22;38074;51.232;6.826;2023-08-06T07:09:22;24.80;54.90
52073;DHT22;38074;51.232;6.826;2023-08-06T07:16:37;24.80;54.90
52073;DHT22;38074;51.232;6.826;2023-08-06T07:23:53;24.80;54.90
52073;DHT22;38074;51.232;6.826;2023-08-06T07:31:09;24.80;54.80
52073;DHT22;38074;51.232;6.826;2023-08-06T07:38:25;24.80;54.70
52073;DHT22;38074;51.232;6.826;2023-08-06T07:45:41;24.80;54.70
52073;DHT22;38074;51.232;6.826;2023-08-06T07:52:57;24.80;54.60
52073;DHT22;38074;51.232;6.826;2023-08-06T08:00:14;24.80;54.60
52073;DHT22;38074;51.232;6.826;2023-08-06T08:07:30;24.90;54.60
52073;DHT22;38074;51.232;6.826;2023-08-06T08:14:47;24.90;54.70
52073;DHT22;38074;51.232;6.826;2023-08-06T08:22:03;24.90;54.80
52073;DHT22;38074;51.232;6.826;2023-08-06T08:29:26;25.00;54.90
52073;DHT22;38074;51.232;6.826;2023-08-06T08:36:41;25.00;54.80
52073;DHT22;38074;51.232;6.826;2023-08-06T08:43:59;25.00;55.00
52073;DHT22;38074;51.232;6.826;2023-08-06T08:51:15;25.00;55.10
52073;DHT22;38074;51.232;6.826;2023-08-06T08:58:35;25.00;55.10
52073;DHT22;38074;51.232;6.826;2023-08-06T09:05:51;25.00;55.10
52073;DHT22;38074;51.232;6.826;2023-08-06T09:13:09;25.00;55.20
52073;DHT22;38074;51.232;6.826;2023-08-06T09:27:48;25.00;55.90
52073;DHT22;38074;51.232;6.826;2023-08-06T09:35:04;25.00;55.30
52073;DHT22;38074;51.232;6.826;2023-08-06T09:42:20;25.00;55.20
52073;DHT22;38074;51.232;6.826;2023-08-06T09:56:51;25.00;55.30
52073;DHT22;38074;51.232;6.826;2023-08-06T10:04:07;25.00;56.10
52073;DHT22;38074;51.232;6.826;2023-08-06T10:11:38;25.00;55.50
52073;DHT22;38074;51.232;6.826;2023-08-06T10:18:54;25.00;55.60
52073;DHT22;38074;51.232;6.826;2023-08-06T10:26:12;25.00;55.70
52073;DHT22;38074;51.232;6.826;2023-08-06T10:33:39;25.00;55.80
52073;DHT22;38074;51.232;6.826;2023-08-06T10:48:11;25.00;56.00
52073;DHT22;38074;51.232;6.826;2023-08-06T10:55:43;25.00;56.10
52073;DHT22;38074;51.232;6.826;2023-08-06T11:02:58;25.00;56.30
52073;DHT22;38074;51.232;6.826;2023-08-06T11:10:14;25.00;56.50
52073;DHT22;38074;51.232;6.826;2023-08-06T11:17:30;25.00;56.80
52073;DHT22;38074;51.232;6.826;2023-08-06T11:24:49;25.10;57.20
52073;DHT22;38074;51.232;6.826;2023-08-06T11:32:06;25.10;57.50
52073;DHT22;38074;51.232;6.826;2023-08-06T11:39:21;25.10;57.70
52073;DHT22;38074;51.232;6.826;2023-08-06T11:46:49;25.10;57.80
52073;DHT22;38074;51.232;6.826;2023-08-06T11:54:06;25.10;58.00
52073;DHT22;38074;51.232;6.826;2023-08-06T12:01:23;25.00;58.00
52073;DHT22;38074;51.232;6.826;2023-08-06T12:08:39;25.00;58.10
52073;DHT22;38074;51.232;6.826;2023-08-06T12:15:57;25.00;58.10
52073;DHT22;38074;51.232;6.826;2023-08-06T12:23:12;25.00;58.10
52073;DHT22;38074;51.232;6.826;2023-08-06T12:30:30;24.90;58.00
52073;DHT22;38074;51.232;6.826;2023-08-06T12:37:46;25.00;58.00
52073;DHT22;38074;51.232;6.826;2023-08-06T12:45:01;24.90;58.00
52073;DHT22;38074;51.232;6.826;2023-08-06T12:52:18;24.90;58.60
52073;DHT22;38074;51.232;6.826;2023-08-06T12:59:48;24.90;58.00
52073;DHT22;38074;51.232;6.826;2023-08-06T13:07:04;24.90;57.90
52073;DHT22;38074;51.232;6.826;2023-08-06T13:14:21;24.90;57.90
52073;DHT22;38074;51.232;6.826;2023-08-06T13:28:58;24.90;57.90
52073;DHT22;38074;51.232;6.826;2023-08-06T13:36:14;25.00;57.90
52073;DHT22;38074;51.232;6.826;2023-08-06T13:43:30;25.00;58.00
52073;DHT22;38074;51.232;6.826;2023-08-06T13:50:45;25.00;57.90
52073;DHT22;38074;51.232;6.826;2023-08-06T13:58:01;25.00;57.90
52073;DHT22;38074;51.232;6.826;2023-08-06T14:05:16;25.00;57.90
52073;DHT22;38074;51.232;6.826;2023-08-06T14:12:32;25.00;57.90
52073;DHT22;38074;51.232;6.826;2023-08-06T14:19:47;25.00;57.90
52073;DHT22;38074;51.232;6.826;2023-08-06T14:27:03;25.00;58.00
52073;DHT22;38074;51.232;6.826;2023-08-06T14:34:19;25.10;58.10
52073;DHT22;38074;51.232;6.826;2023-08-06T14:41:34;25.00;57.90
52073;DHT22;38074;51.232;6.826;2023-08-06T14:48:50;25.00;57.90
52073;DHT22;38074;51.232;6.826;2023-08-06T14:56:05;25.00;57.90
52073;DHT22;38074;51.232;6.826;2023-08-06T15:03:21;25.00;57.90
52073;DHT22;38074;51.232;6.826;2023-08-06T15:10:40;25.00;57.90
52073;DHT22;38074;51.232;6.826;2023-08-06T15:17:55;25.00;58.40
52073;DHT22;38074;51.232;6.826;2023-08-06T15:25:11;25.00;57.70
52073;DHT22;38074;51.232;6.826;2023-08-06T15:32:27;25.00;57.60
52073;DHT22;38074;51.232;6.826;2023-08-06T15:39:42;25.00;57.60
52073;DHT22;38074;51.232;6.826;2023-08-06T15:46:59;25.00;57.40
52073;DHT22;38074;51.232;6.826;2023-08-06T15:54:15;24.90;57.40
52073;DHT22;38074;51.232;6.826;2023-08-06T16:01:30;24.90;57.20
52073;DHT22;38074;51.232;6.826;2023-08-06T16:08:46;24.90;57.10
52073;DHT22;38074;51.232;6.826;2023-08-06T16:16:01;24.90;57.00
52073;DHT22;38074;51.232;6.826;2023-08-06T16:23:17;24.90;56.90
52073;DHT22;38074;51.232;6.826;2023-08-06T16:30:32;24.90;56.70
52073;DHT22;38074;51.232;6.826;2023-08-06T16:37:48;24.90;56.60
52073;DHT22;38074;51.232;6.826;2023-08-06T16:45:04;24.90;56.40
52073;DHT22;38074;51.232;6.826;2023-08-06T16:52:20;24.90;56.30
52073;DHT22;38074;51.232;6.826;2023-08-06T16:59:36;24.80;56.00
52073;DHT22;38074;51.232;6.826;2023-08-06T17:06:51;24.90;55.90
52073;DHT22;38074;51.232;6.826;2023-08-06T17:14:08;24.90;55.90
52073;DHT22;38074;51.232;6.826;2023-08-06T17:21:25;24.90;55.90
52073;DHT22;38074;51.232;6.826;2023-08-06T17:28:40;24.90;55.90
52073;DHT22;38074;51.232;6.826;2023-08-06T17:35:56;24.90;55.90
52073;DHT22;38074;51.232;6.826;2023-08-06T17:43:12;25.00;56.90
52073;DHT22;38074;51.232;6.826;2023-08-06T17:50:27;25.10;57.30
52073;DHT22;38074;51.232;6.826;2023-08-06T17:57:43;25.00;57.30
52073;DHT22;38074;51.232;6.826;2023-08-06T18:04:59;25.00;57.30
52073;DHT22;38074;51.232;6.826;2023-08-06T18:12:14;25.00;57.40
52073;DHT22;38074;51.232;6.826;2023-08-06T18:19:30;25.00;57.50
52073;DHT22;38074;51.232;6.826;2023-08-06T18:26:45;25.00;57.60
52073;DHT22;38074;51.232;6.826;2023-08-06T18:34:01;25.00;57.60
52073;DHT22;38074;51.232;6.826;2023-08-06T18:41:17;25.00;57.50
52073;DHT22;38074;51.232;6.826;2023-08-06T18:48:32;25.10;57.90
52073;DHT22;38074;51.232;6.826;2023-08-06T18:55:48;25.00;57.50
52073;DHT22;38074;51.232;6.826;2023-08-06T19:03:04;24.90;57.20
52073;DHT22;38074;51.232;6.826;2023-08-06T19:10:19;24.90;57.10
52073;DHT22;38074;51.232;6.826;2023-08-06T19:17:37;24.90;57.00
52073;DHT22;38074;51.232;6.826;2023-08-06T19:24:53;24.90;56.70
52073;DHT22;38074;51.232;6.826;2023-08-06T19:32:09;24.80;56.50
52073;DHT22;38074;51.232;6.826;2023-08-06T19:39:24;24.80;56.30
52073;DHT22;38074;51.232;6.826;2023-08-06T19:46:40;24.80;56.10
52073;DHT22;38074;51.232;6.826;2023-08-06T19:53:55;24.80;55.90
52073;DHT22;38074;51.232;6.826;2023-08-06T20:01:11;24.70;55.80
52073;DHT22;38074;51.232;6.826;2023-08-06T20:08:26;24.70;55.60
52073;DHT22;38074;51.232;6.826;2023-08-06T20:15:42;24.70;55.60
52073;DHT22;38074;51.232;6.826;2023-08-06T20:22:58;24.70;55.50
52073;DHT22;38074;51.232;6.826;2023-08-06T20:30:13;24.70;55.40
52073;DHT22;38074;51.232;6.826;2023-08-06T20:37:29;24.70;55.30
52073;DHT22;38074;51.232;6.826;2023-08-06T20:44:44;24.70;55.30
52073;DHT22;38074;51.232;6.826;2023-08-06T20:52:01;24.70;55.30
52073;DHT22;38074;51.232;6.826;2023-08-06T20:59:17;24.80;55.30
52073;DHT22;38074;51.232;6.826;2023-08-06T21:06:32;24.70;55.20
52073;DHT22;38074;51.232;6.826;2023-08-06T21:13:48;24.80;55.20
52073;DHT22;38074;51.232;6.826;2023-08-06T21:21:04;24.80;55.20
52073;DHT22;38074;51.232;6.826;2023-08-06T21:28:24;24.70;55.10
52073;DHT22;38074;51.232;6.826;2023-08-06T21:35:39;24.80;55.20
52073;DHT22;38074;51.232;6.826;2023-08-06T21:42:55;24.70;55.10
52073;DHT22;38074;51.232;6.826;2023-08-06T21:50:10;24.70;55.10
52073;DHT22;38074;51.232;6.826;2023-08-06T21:57:28;24.70;55.00
52073;DHT22;38074;51.232;6.826;2023-08-06T22:04:44;24.70;55.00
52073;DHT22;38074;51.232;6.826;2023-08-06T22:11:59;24.70;55.00
52073;DHT22;38074;51.232;6.826;2023-08-06T22:19:15;24.70;55.10
52073;DHT22;38074;51.232;6.826;2023-08-06T22:26:30;24.70;55.10
52073;DHT22;38074;51.232;6.826;2023-08-06T22:33:45;24.70;55.20
52073;DHT22;38074;51.232;6.826;2023-08-06T22:41:01;24.80;55.30
52073;DHT22;38074;51.232;6.826;2023-08-06T22:48:16;24.80;55.30
52073;DHT22;38074;51.232;6.826;2023-08-06T22:55:32;24.80;55.30
52073;DHT22;38074;51.232;6.826;2023-08-06T23:02:47;24.70;55.30
52073;DHT22;38074;51.232;6.826;2023-08-06T23:10:04;24.80;55.30
52073;DHT22;38074;51.232;6.826;2023-08-06T23:17:20;24.80;55.40
52073;DHT22;38074;51.232;6.826;2023-08-06T23:24:35;24.70;55.30
52073;DHT22;38074;51.232;6.826;2023-08-06T23:31:51;24.70;55.30
52073;DHT22;38074;51.232;6.826;2023-08-06T23:39:06;24.70;55.30
52073;DHT22;38074;51.232;6.826;2023-08-06T23:46:26;24.70;55.40
52073;DHT22;38074;51.232;6.826;2023-08-06T23:53:42;24.70;56.00
